Time;durP1;ratioP1;P1;durP2;ratioP2;P2;SDS_P1;SDS_P2;PMS_P1;PMS_P2;Temp;Humidity;BMP_temperature;BMP_pressure;BME280_temperature;BME280_humidity;BME280_pressure;Samples;Min_cycle;Max_cycle;Signal;HPM_P1;HPM_P2
2024/01/24 00:02:20;;;;;;;0.40;0.30;;;7.60;99.90;;;;;;5078350;28;20831;-80
2024/01/24 00:04:48;;;;;;;4.20;0.80;;;7.60;99.90;;;;;;5078431;28;20452;-81
2024/01/24 00:07:15;;;;;;;0.30;0.30;;;7.60;99.90;;;;;;5078290;28;20495;-81
2024/01/24 00:09:42;;;;;;;0.50;0.50;;;7.60;99.90;;;;;;5077550;28;20452;-80
2024/01/24 00:12:09;;;;;;;1.63;0.50;;;7.60;99.90;;;;;;5077845;28;20443;-81
2024/01/24 00:14:36;;;;;;;2.23;0.50;;;7.60;99.90;;;;;;5078084;28;20441;-81
2024/01/24 00:17:03;;;;;;;0.50;0.40;;;7.60;99.90;;;;;;5078202;28;20440;-81
2024/01/24 00:19:29;;;;;;;0.30;0.20;;;7.70;99.90;;;;;;5077898;28;20461;-81
2024/01/24 00:21:57;;;;;;;0.50;0.50;;;7.70;99.90;;;;;;5077724;28;20804;-81
2024/01/24 00:24:24;;;;;;;0.70;0.60;;;7.70;99.90;;;;;;5077813;28;20961;-81
2024/01/24 00:26:51;;;;;;;0.40;0.30;;;7.80;99.90;;;;;;5077568;28;20485;-81
2024/01/24 00:29:17;;;;;;;0.50;0.50;;;7.80;99.90;;;;;;5077400;28;20464;-81
2024/01/24 00:31:46;;;;;;;0.30;0.30;;;7.80;99.90;;;;;;5077290;28;20979;-81
2024/01/24 00:34:13;;;;;;;0.73;0.40;;;7.90;99.90;;;;;;5077287;28;20817;-81
2024/01/24 00:36:39;;;;;;;1.07;0.70;;;7.90;99.90;;;;;;5077135;28;20440;-80
2024/01/24 00:39:08;;;;;;;0.60;0.50;;;8.00;99.90;;;;;;5077192;28;20836;-81
2024/01/24 00:41:34;;;;;;;0.70;0.50;;;8.00;99.90;;;;;;5076835;28;20479;-81
2024/01/24 00:44:01;;;;;;;22.93;0.57;;;8.00;99.90;;;;;;5077021;28;20444;-81
2024/01/24 00:46:28;;;;;;;2.57;0.50;;;8.10;99.90;;;;;;5076694;28;20480;-81
2024/01/24 00:48:55;;;;;;;1.13;0.40;;;8.00;99.90;;;;;;5076226;28;20468;-81
2024/01/24 00:51:21;;;;;;;5.70;1.13;;;8.10;99.90;;;;;;5076019;28;20938;-81
2024/01/24 00:53:52;;;;;;;0.40;0.37;;;8.00;99.90;;;;;;5076249;28;20456;-81
2024/01/24 00:56:20;;;;;;;0.70;0.40;;;8.00;99.90;;;;;;5076944;28;20421;-81
2024/01/24 00:58:47;;;;;;;0.30;0.20;;;8.10;99.90;;;;;;5077605;28;20461;-81
2024/01/24 01:01:14;;;;;;;0.40;0.30;;;8.10;99.90;;;;;;5077468;28;20444;-80
2024/01/24 01:03:40;;;;;;;0.40;0.30;;;8.20;99.90;;;;;;5076043;28;20428;-81
2024/01/24 01:06:07;;;;;;;0.83;0.53;;;8.20;99.90;;;;;;5076468;28;20476;-80
2024/01/24 01:08:34;;;;;;;0.30;0.30;;;8.20;99.90;;;;;;5075710;28;20515;-81
2024/01/24 01:11:01;;;;;;;0.50;0.40;;;8.30;99.90;;;;;;5077406;28;20437;-81
2024/01/24 01:13:29;;;;;;;0.30;0.30;;;8.20;99.90;;;;;;5085265;28;20452;-81
2024/01/24 01:15:55;;;;;;;0.30;0.30;;;8.30;99.90;;;;;;5073918;28;20444;-81
2024/01/24 01:18:22;;;;;;;0.30;0.30;;;8.40;99.90;;;;;;5074222;28;20818;-80
2024/01/24 01:20:49;;;;;;;0.60;0.40;;;8.30;99.90;;;;;;5075859;28;20441;-80
2024/01/24 01:23:15;;;;;;;0.40;0.30;;;8.30;99.90;;;;;;5078096;28;20452;-80
2024/01/24 01:25:42;;;;;;;3.03;0.40;;;8.30;99.90;;;;;;5080779;28;20445;-82
2024/01/24 01:28:09;;;;;;;1.13;0.43;;;8.40;99.90;;;;;;5084185;28;20445;-81
2024/01/24 01:30:37;;;;;;;0.30;0.30;;;8.40;99.90;;;;;;5083239;28;20970;-81
2024/01/24 01:33:04;;;;;;;0.30;0.30;;;8.40;99.90;;;;;;5083639;28;20449;-81
2024/01/24 01:35:33;;;;;;;0.60;0.33;;;8.40;99.90;;;;;;5083046;28;20441;-81
2024/01/24 01:37:59;;;;;;;0.40;0.33;;;8.50;99.90;;;;;;5082737;28;20520;-81
2024/01/24 01:40:26;;;;;;;4.23;0.40;;;8.50;99.90;;;;;;5082530;28;20465;-81
2024/01/24 01:42:53;;;;;;;1.07;0.40;;;8.40;99.90;;;;;;5082449;28;20475;-81
2024/01/24 01:45:20;;;;;;;0.30;0.30;;;8.50;99.90;;;;;;5082465;28;20447;-81
2024/01/24 01:47:50;;;;;;;0.50;0.30;;;8.40;99.90;;;;;;5081704;28;20582;-81
2024/01/24 01:50:17;;;;;;;0.30;0.30;;;8.40;99.90;;;;;;5083088;28;20476;-81
2024/01/24 01:52:45;;;;;;;0.37;0.30;;;8.40;99.90;;;;;;5081638;28;20448;-81
2024/01/24 01:55:14;;;;;;;4.73;0.50;;;8.40;99.90;;;;;;5081856;28;20811;-81
2024/01/24 01:57:43;;;;;;;3.70;0.60;;;8.40;99.90;;;;;;5081138;28;20440;-81
2024/01/24 02:00:18;;;;;;;0.67;0.37;;;8.40;99.90;;;;;;5081250;28;20469;-81
2024/01/24 02:02:45;;;;;;;0.30;0.30;;;8.40;99.90;;;;;;5080765;28;20531;-81
2024/01/24 02:05:14;;;;;;;0.50;0.30;;;8.40;99.90;;;;;;5080964;28;20509;-81
2024/01/24 02:07:43;;;;;;;1.00;0.40;;;8.30;99.90;;;;;;5080411;28;20571;-81
2024/01/24 02:10:10;;;;;;;1.43;1.43;;;8.20;99.90;;;;;;5080559;28;20480;-81
2024/01/24 02:12:37;;;;;;;1.30;0.40;;;8.30;99.90;;;;;;5080232;28;20968;-81
2024/01/24 02:15:04;;;;;;;0.83;0.30;;;8.20;99.90;;;;;;5080178;28;20440;-81
2024/01/24 02:17:31;;;;;;;0.67;0.60;;;8.20;99.90;;;;;;5079926;28;21036;-81
2024/01/24 02:19:57;;;;;;;0.30;0.30;;;8.30;99.90;;;;;;5080116;28;20464;-81
2024/01/24 02:22:25;;;;;;;0.30;0.30;;;8.20;99.90;;;;;;5079964;28;20810;-81
2024/01/24 02:24:54;;;;;;;0.30;0.30;;;8.20;99.90;;;;;;5079660;28;20441;-81
2024/01/24 02:27:20;;;;;;;0.30;0.30;;;8.20;99.90;;;;;;5079716;28;20481;-81
2024/01/24 02:29:47;;;;;;;0.40;0.30;;;8.20;99.90;;;;;;5079586;28;20465;-80
2024/01/24 02:32:14;;;;;;;0.40;0.30;;;8.20;99.90;;;;;;5079164;28;20448;-81
2024/01/24 02:34:40;;;;;;;0.30;0.20;;;8.20;99.90;;;;;;5080050;28;20456;-80
2024/01/24 02:37:07;;;;;;;0.40;0.30;;;8.20;99.90;;;;;;5078703;28;20441;-80
2024/01/24 02:39:34;;;;;;;0.37;0.27;;;8.10;99.90;;;;;;5091354;28;20970;-80
2024/01/24 02:42:02;;;;;;;0.40;0.30;;;8.10;99.90;;;;;;5096372;28;20448;-80
2024/01/24 02:44:29;;;;;;;5.63;0.40;;;8.20;99.90;;;;;;5093063;28;20457;-81
2024/01/24 02:46:55;;;;;;;0.37;0.33;;;8.20;99.90;;;;;;5086656;28;20480;-81
2024/01/24 02:49:22;;;;;;;0.40;0.30;;;8.20;99.90;;;;;;5089213;28;20451;-80
2024/01/24 02:51:49;;;;;;;0.40;0.40;;;8.20;99.90;;;;;;5098446;28;20441;-80
2024/01/24 02:54:16;;;;;;;0.30;0.30;;;8.20;99.90;;;;;;5097557;28;20475;-80
2024/01/24 02:56:42;;;;;;;3.00;0.40;;;8.20;99.90;;;;;;5099362;28;20475;-80
2024/01/24 02:59:11;;;;;;;0.30;0.20;;;8.20;99.90;;;;;;5097457;28;20477;-80
2024/01/24 03:01:39;;;;;;;0.30;0.30;;;8.20;99.90;;;;;;5086886;28;20429;-81
2024/01/24 03:04:07;;;;;;;0.40;0.30;;;8.10;99.90;;;;;;5083637;28;20453;-81
2024/01/24 03:06:33;;;;;;;1.67;0.50;;;8.10;99.90;;;;;;5082073;28;20480;-81
2024/01/24 03:09:00;;;;;;;0.30;0.30;;;8.10;99.90;;;;;;5082037;28;20831;-80
2024/01/24 03:11:27;;;;;;;6.33;0.40;;;8.10;99.90;;;;;;5082286;28;20441;-81
2024/01/24 03:13:54;;;;;;;0.30;0.30;;;8.10;99.90;;;;;;5081888;28;20451;-81
2024/01/24 03:16:22;;;;;;;0.60;0.33;;;8.10;99.90;;;;;;5081662;28;20788;-81
2024/01/24 03:18:48;;;;;;;5.50;0.50;;;8.10;99.90;;;;;;5081398;28;20469;-81
2024/01/24 03:21:17;;;;;;;0.30;0.30;;;8.10;99.90;;;;;;5081621;28;20808;-81
2024/01/24 03:23:44;;;;;;;2.40;0.30;;;8.10;99.90;;;;;;5087733;28;20489;-80
2024/01/24 03:26:13;;;;;;;1.33;0.30;;;8.10;99.90;;;;;;5079659;28;20444;-80
2024/01/24 03:28:39;;;;;;;0.30;0.30;;;8.10;99.90;;;;;;5076248;28;20539;-80
2024/01/24 03:31:06;;;;;;;0.30;0.30;;;8.10;99.90;;;;;;5076413;28;20433;-80
2024/01/24 03:33:37;;;;;;;0.50;0.40;;;8.10;99.90;;;;;;5076234;28;20965;-80
2024/01/24 03:36:04;;;;;;;0.30;0.30;;;8.20;99.90;;;;;;5076956;28;20424;-81
2024/01/24 03:38:31;;;;;;;0.30;0.30;;;8.20;99.90;;;;;;5075825;28;20807;-80
2024/01/24 03:40:57;;;;;;;0.40;0.30;;;8.10;99.90;;;;;;5075990;28;20429;-80
2024/01/24 03:43:24;;;;;;;0.40;0.40;;;8.20;99.90;;;;;;5076147;28;20809;-80
2024/01/24 03:45:51;;;;;;;0.83;0.30;;;8.10;99.90;;;;;;5076185;28;20444;-80
2024/01/24 03:48:17;;;;;;;0.70;0.50;;;8.20;99.90;;;;;;5075894;28;20842;-80
2024/01/24 03:50:45;;;;;;;0.50;0.50;;;8.20;99.90;;;;;;5075904;28;20456;-80
2024/01/24 03:53:12;;;;;;;1.77;0.40;;;8.20;99.90;;;;;;5075513;28;20433;-80
2024/01/24 03:55:39;;;;;;;0.30;0.30;;;8.30;99.90;;;;;;5075485;28;20445;-81
2024/01/24 03:58:06;;;;;;;7.23;0.40;;;8.40;99.90;;;;;;5076598;28;20443;-81
2024/01/24 04:00:32;;;;;;;2.93;0.60;;;8.40;99.90;;;;;;5076280;28;20824;-80
2024/01/24 04:02:59;;;;;;;0.30;0.30;;;8.50;99.90;;;;;;5075964;28;20452;-80
2024/01/24 04:05:26;;;;;;;0.30;0.20;;;8.50;99.90;;;;;;5075807;28;20444;-80
2024/01/24 04:07:54;;;;;;;0.30;0.30;;;8.60;99.90;;;;;;5075212;28;20496;-80
2024/01/24 04:10:21;;;;;;;2.10;0.60;;;8.60;99.90;;;;;;5074617;28;20464;-80
2024/01/24 04:12:47;;;;;;;0.40;0.40;;;8.80;99.90;;;;;;5076483;28;20429;-81
2024/01/24 04:15:14;;;;;;;0.50;0.40;;;8.90;99.90;;;;;;5075667;28;20444;-81
2024/01/24 04:17:41;;;;;;;0.93;0.30;;;8.90;99.90;;;;;;5075186;28;20441;-80
2024/01/24 04:20:08;;;;;;;1.43;0.67;;;8.90;99.90;;;;;;5075330;28;20449;-81
2024/01/24 04:22:35;;;;;;;0.40;0.30;;;9.00;99.90;;;;;;5074980;28;20447;-80
2024/01/24 04:25:04;;;;;;;1.17;0.40;;;9.00;99.90;;;;;;5074950;28;20490;-80
2024/01/24 04:27:30;;;;;;;0.43;0.37;;;9.00;99.90;;;;;;5074710;28;20478;-80
2024/01/24 04:29:57;;;;;;;0.30;0.30;;;9.00;99.90;;;;;;5074571;28;20461;-80
2024/01/24 04:32:24;;;;;;;0.50;0.40;;;9.00;99.90;;;;;;5077327;28;20445;-81
2024/01/24 04:34:50;;;;;;;0.50;0.33;;;9.10;99.90;;;;;;5075673;28;20449;-81
2024/01/24 04:37:17;;;;;;;1.83;0.33;;;9.10;99.90;;;;;;5074677;28;20447;-81
2024/01/24 04:39:44;;;;;;;0.40;0.30;;;9.20;99.90;;;;;;5074205;28;20471;-80
2024/01/24 04:42:12;;;;;;;0.30;0.30;;;9.20;99.90;;;;;;5075287;28;20780;-80
2024/01/24 04:44:39;;;;;;;1.13;0.80;;;9.20;99.90;;;;;;5074632;28;20445;-81
2024/01/24 04:47:06;;;;;;;0.40;0.40;;;9.20;99.90;;;;;;5073895;28;20491;-80
2024/01/24 04:49:33;;;;;;;0.30;0.30;;;9.20;99.90;;;;;;5074256;28;20504;-80
2024/01/24 04:52:00;;;;;;;0.30;0.30;;;9.20;99.90;;;;;;5074185;28;20441;-81
2024/01/24 04:54:26;;;;;;;0.40;0.40;;;9.30;99.90;;;;;;5073908;28;20480;-80
2024/01/24 04:56:53;;;;;;;6.20;0.40;;;9.30;99.90;;;;;;5075420;28;20455;-80
2024/01/24 04:59:21;;;;;;;0.60;0.60;;;9.30;99.90;;;;;;5074260;28;20471;-80
2024/01/24 05:01:48;;;;;;;0.40;0.40;;;9.40;99.90;;;;;;5074457;28;20441;-80
2024/01/24 05:04:15;;;;;;;0.30;0.30;;;9.30;99.90;;;;;;5074296;28;20433;-80
2024/01/24 05:06:42;;;;;;;0.30;0.30;;;9.30;99.90;;;;;;5074230;28;20445;-80
2024/01/24 05:09:09;;;;;;;0.50;0.40;;;9.30;99.90;;;;;;5037790;28;1051567;-80
2024/01/24 05:11:35;;;;;;;0.40;0.40;;;9.30;99.90;;;;;;5074935;28;20291;-81
2024/01/24 05:14:02;;;;;;;0.40;0.40;;;9.30;99.90;;;;;;5074714;28;20926;-80
2024/01/24 05:16:30;;;;;;;0.40;0.30;;;9.30;99.90;;;;;;5074859;28;20437;-80
2024/01/24 05:18:57;;;;;;;0.40;0.40;;;9.40;99.90;;;;;;5074814;28;20464;-80
2024/01/24 05:21:24;;;;;;;0.60;0.40;;;9.40;99.90;;;;;;5075196;28;20808;-80
2024/01/24 05:23:52;;;;;;;0.90;0.90;;;9.40;99.90;;;;;;5076446;28;20460;-81
2024/01/24 05:26:19;;;;;;;0.40;0.33;;;9.50;99.90;;;;;;5079195;28;20449;-81
2024/01/24 05:28:46;;;;;;;4.43;0.63;;;9.40;99.90;;;;;;5079257;28;20855;-81
2024/01/24 05:31:13;;;;;;;0.50;0.40;;;9.40;99.90;;;;;;5079013;28;20448;-81
2024/01/24 05:33:41;;;;;;;1.40;0.47;;;9.40;99.90;;;;;;5079399;28;20466;-81
2024/01/24 05:36:09;;;;;;;0.40;0.30;;;9.50;99.90;;;;;;5087138;28;20704;-80
2024/01/24 05:38:36;;;;;;;2.83;0.40;;;9.40;99.90;;;;;;5075020;28;20476;-80
2024/01/24 05:41:03;;;;;;;0.50;0.50;;;9.50;99.90;;;;;;5073725;28;20448;-80
2024/01/24 05:43:30;;;;;;;2.20;0.30;;;9.50;99.90;;;;;;5073773;28;20810;-80
2024/01/24 05:45:56;;;;;;;1.33;0.30;;;9.50;99.90;;;;;;5073404;28;20440;-80
2024/01/24 05:48:23;;;;;;;0.37;0.37;;;9.50;99.90;;;;;;5073239;28;20524;-80
2024/01/24 05:50:51;;;;;;;0.50;0.40;;;9.50;99.90;;;;;;5073232;28;20433;-80
2024/01/24 05:53:18;;;;;;;0.40;0.30;;;9.50;99.90;;;;;;5073911;28;20448;-80
2024/01/24 05:55:45;;;;;;;2.40;0.63;;;9.50;99.90;;;;;;5076062;28;20471;-81
2024/01/24 05:58:12;;;;;;;2.87;0.40;;;9.50;99.90;;;;;;5073776;28;20441;-80
2024/01/24 06:00:39;;;;;;;0.37;0.30;;;9.60;99.90;;;;;;5073548;28;20461;-81
2024/01/24 06:03:07;;;;;;;0.30;0.30;;;9.60;99.90;;;;;;5076745;28;20953;-81
2024/01/24 06:05:34;;;;;;;0.30;0.30;;;9.70;99.90;;;;;;5078146;28;20452;-81
2024/01/24 06:08:02;;;;;;;0.40;0.40;;;9.70;99.90;;;;;;5077264;28;20480;-80
2024/01/24 06:10:29;;;;;;;0.50;0.40;;;9.80;99.90;;;;;;5077106;28;20981;-80
2024/01/24 06:12:56;;;;;;;0.30;0.30;;;9.80;99.90;;;;;;5076992;28;20448;-80
2024/01/24 06:15:23;;;;;;;1.77;0.40;;;9.80;99.90;;;;;;5077488;28;20866;-80
2024/01/24 06:17:49;;;;;;;0.70;0.40;;;9.80;99.90;;;;;;5076961;28;20952;-80
2024/01/24 06:20:16;;;;;;;0.37;0.30;;;9.80;99.90;;;;;;5077277;28;21039;-80
2024/01/24 06:22:45;;;;;;;0.40;0.40;;;9.80;99.90;;;;;;5077039;28;20437;-80
2024/01/24 06:25:14;;;;;;;0.50;0.50;;;9.90;99.90;;;;;;5077071;28;20451;-81
2024/01/24 06:27:42;;;;;;;0.50;0.50;;;9.90;99.90;;;;;;5077421;28;20477;-81
2024/01/24 06:30:10;;;;;;;1.00;0.40;;;10.00;99.90;;;;;;5076961;28;20472;-80
2024/01/24 06:32:37;;;;;;;1.23;0.40;;;9.90;99.90;;;;;;5077066;28;20574;-80
2024/01/24 06:35:04;;;;;;;0.40;0.30;;;9.90;99.90;;;;;;5077077;28;20452;-80
2024/01/24 06:37:31;;;;;;;0.40;0.40;;;10.00;99.90;;;;;;5078497;28;20444;-81
2024/01/24 06:39:58;;;;;;;0.40;0.30;;;10.00;99.90;;;;;;5077458;28;20460;-81
2024/01/24 06:42:26;;;;;;;0.30;0.30;;;10.00;99.90;;;;;;5077302;28;20440;-80
2024/01/24 06:44:54;;;;;;;0.30;0.30;;;10.00;99.90;;;;;;5077881;28;20562;-80
2024/01/24 06:47:21;;;;;;;0.40;0.40;;;10.00;99.90;;;;;;5079119;28;20445;-80
2024/01/24 06:49:47;;;;;;;0.30;0.30;;;10.10;99.90;;;;;;5082640;28;20457;-81
2024/01/24 06:52:14;;;;;;;0.30;0.30;;;10.10;99.90;;;;;;5084484;28;20448;-81
2024/01/24 06:54:41;;;;;;;0.40;0.40;;;10.10;99.90;;;;;;5085280;28;20445;-81
2024/01/24 06:57:07;;;;;;;0.30;0.30;;;10.10;99.90;;;;;;5085533;28;20449;-80
2024/01/24 06:59:35;;;;;;;0.60;0.37;;;10.10;99.90;;;;;;5080541;28;20463;-81
2024/01/24 07:02:03;;;;;;;0.40;0.30;;;10.10;99.90;;;;;;5076937;28;20817;-81
2024/01/24 07:04:29;;;;;;;0.50;0.40;;;10.00;99.90;;;;;;5077238;28;20449;-81
2024/01/24 07:06:56;;;;;;;0.30;0.30;;;10.00;99.90;;;;;;5077348;28;20448;-81
2024/01/24 07:09:23;;;;;;;0.53;0.53;;;10.00;99.90;;;;;;5078435;28;20488;-81
2024/01/24 07:11:49;;;;;;;1.30;0.60;;;10.00;99.90;;;;;;5077131;28;20441;-81
2024/01/24 07:14:16;;;;;;;0.73;0.30;;;10.00;99.90;;;;;;5076813;28;20433;-80
2024/01/24 07:16:45;;;;;;;0.40;0.30;;;10.00;99.90;;;;;;5076614;28;20445;-80
2024/01/24 07:19:12;;;;;;;0.30;0.30;;;9.90;99.90;;;;;;5078776;28;20989;-81
2024/01/24 07:21:39;;;;;;;1.73;0.40;;;9.90;99.90;;;;;;5080702;28;20441;-81
2024/01/24 07:24:06;;;;;;;0.60;0.60;;;9.80;99.90;;;;;;5082003;28;20495;-82
2024/01/24 07:26:34;;;;;;;0.40;0.40;;;9.80;99.90;;;;;;5082282;28;20453;-82
2024/01/24 07:29:00;;;;;;;0.30;0.30;;;9.80;99.90;;;;;;5083044;28;20513;-79
2024/01/24 07:31:28;;;;;;;0.30;0.30;;;9.80;99.90;;;;;;5081222;28;20460;-80
2024/01/24 07:33:56;;;;;;;1.13;0.50;;;9.80;99.90;;;;;;5081607;28;20880;-80
2024/01/24 07:36:23;;;;;;;0.30;0.30;;;9.80;99.90;;;;;;5081448;28;20499;-80
2024/01/24 07:38:50;;;;;;;0.30;0.30;;;9.90;99.90;;;;;;5080002;28;20464;-80
2024/01/24 07:41:16;;;;;;;1.17;0.37;;;9.90;99.90;;;;;;5081070;28;20801;-84
2024/01/24 07:43:43;;;;;;;0.70;0.40;;;9.90;99.90;;;;;;5080317;28;20449;-80
2024/01/24 07:46:11;;;;;;;2.83;0.40;;;9.90;99.90;;;;;;5080527;28;20455;-80
2024/01/24 07:48:37;;;;;;;0.30;0.30;;;10.00;99.90;;;;;;5084735;28;20484;-79
2024/01/24 07:51:06;;;;;;;0.40;0.30;;;10.00;99.90;;;;;;5079618;28;20456;-79
2024/01/24 07:53:32;;;;;;;0.30;0.30;;;10.10;99.90;;;;;;5076728;28;20448;-80
2024/01/24 07:55:59;;;;;;;0.40;0.40;;;10.00;99.90;;;;;;5077090;28;20448;-79
2024/01/24 07:58:27;;;;;;;0.60;0.50;;;10.00;99.90;;;;;;5077069;28;20444;-79
2024/01/24 08:00:55;;;;;;;0.30;0.30;;;10.10;99.90;;;;;;5078791;28;20441;-79
2024/01/24 08:03:21;;;;;;;2.83;0.50;;;10.10;99.90;;;;;;5078389;28;20471;-79
2024/01/24 08:05:48;;;;;;;0.50;0.30;;;10.20;99.90;;;;;;5078100;28;20440;-79
2024/01/24 08:08:16;;;;;;;0.30;0.20;;;10.20;99.90;;;;;;5077353;28;20492;-80
2024/01/24 08:10:43;;;;;;;0.30;0.20;;;10.30;99.90;;;;;;5077617;28;20441;-79
2024/01/24 08:13:10;;;;;;;0.30;0.30;;;10.30;99.90;;;;;;5076911;28;20451;-79
2024/01/24 08:15:36;;;;;;;0.30;0.27;;;10.40;99.90;;;;;;5076231;28;20452;-80
2024/01/24 08:18:03;;;;;;;0.30;0.20;;;10.40;99.90;;;;;;5076370;28;20433;-79
2024/01/24 08:20:30;;;;;;;0.30;0.30;;;10.40;99.90;;;;;;5076592;28;20468;-80
2024/01/24 08:22:57;;;;;;;0.30;0.30;;;10.50;99.90;;;;;;5076977;28;20441;-79
2024/01/24 08:25:25;;;;;;;0.30;0.30;;;10.60;99.90;;;;;;5077634;28;20785;-80
2024/01/24 08:27:52;;;;;;;0.60;0.30;;;10.60;99.90;;;;;;5077426;28;20950;-79
2024/01/24 08:30:19;;;;;;;0.37;0.33;;;10.70;99.90;;;;;;5077336;28;20475;-79
2024/01/24 08:32:46;;;;;;;1.67;0.40;;;10.70;99.90;;;;;;5077914;28;20803;-80
2024/01/24 08:35:13;;;;;;;0.30;0.20;;;10.80;99.90;;;;;;5076932;28;20436;-80
2024/01/24 08:37:40;;;;;;;0.30;0.30;;;10.90;99.90;;;;;;5078083;28;20445;-80
2024/01/24 08:40:10;;;;;;;0.30;0.30;;;10.90;99.90;;;;;;5078566;28;20473;-80
2024/01/24 08:42:40;;;;;;;0.40;0.30;;;11.00;99.90;;;;;;5078763;28;20445;-80
2024/01/24 08:45:09;;;;;;;0.30;0.30;;;11.00;99.90;;;;;;5079835;28;20437;-80
2024/01/24 08:47:35;;;;;;;0.30;0.30;;;11.10;99.90;;;;;;5079307;28;20830;-80
2024/01/24 08:50:04;;;;;;;0.30;0.20;;;11.10;99.90;;;;;;5078028;28;21009;-79
2024/01/24 08:52:30;;;;;;;0.40;0.30;;;11.10;99.90;;;;;;5077172;28;20543;-80
2024/01/24 08:54:57;;;;;;;0.70;0.30;;;11.20;99.90;;;;;;5077728;28;20456;-80
2024/01/24 08:57:24;;;;;;;0.30;0.30;;;11.20;99.90;;;;;;5076928;28;20532;-80
2024/01/24 08:59:53;;;;;;;0.30;0.30;;;11.20;99.90;;;;;;5077030;28;20518;-80
2024/01/24 09:02:19;;;;;;;1.27;0.30;;;11.30;99.90;;;;;;5077060;28;20451;-80
2024/01/24 09:04:48;;;;;;;1.27;0.30;;;11.30;99.90;;;;;;5076123;28;20783;-79
2024/01/24 09:07:15;;;;;;;0.30;0.30;;;11.30;99.90;;;;;;5076545;28;20494;-80
2024/01/24 09:09:42;;;;;;;0.30;0.20;;;11.40;99.90;;;;;;5075868;28;20484;-80
2024/01/24 09:12:09;;;;;;;0.30;0.30;;;11.50;99.90;;;;;;5075360;28;20795;-80
2024/01/24 09:14:35;;;;;;;0.30;0.30;;;11.60;99.90;;;;;;5076405;28;20445;-80
2024/01/24 09:17:07;;;;;;;0.30;0.30;;;11.50;99.90;;;;;;5078587;28;20447;-79
2024/01/24 09:19:34;;;;;;;0.30;0.20;;;11.60;99.90;;;;;;5078770;28;20503;-80
2024/01/24 09:22:01;;;;;;;0.40;0.30;;;11.60;99.90;;;;;;5078063;28;20444;-80
2024/01/24 09:24:27;;;;;;;0.30;0.20;;;11.60;99.90;;;;;;5077866;28;20436;-80
2024/01/24 09:26:55;;;;;;;0.30;0.30;;;11.60;99.90;;;;;;5078201;28;20865;-80
2024/01/24 09:29:21;;;;;;;0.30;0.20;;;11.60;99.90;;;;;;5078169;28;20523;-80
2024/01/24 09:31:48;;;;;;;0.30;0.20;;;11.50;99.90;;;;;;5077974;28;20451;-80
2024/01/24 09:34:17;;;;;;;0.30;0.30;;;11.50;99.90;;;;;;5077916;28;20467;-79
2024/01/24 09:36:44;;;;;;;0.30;0.30;;;11.50;99.90;;;;;;5076824;28;21060;-79
2024/01/24 09:39:11;;;;;;;0.50;0.30;;;11.30;99.90;;;;;;5077393;28;20464;-80
2024/01/24 09:41:41;;;;;;;0.40;0.30;;;11.20;99.90;;;;;;5079162;28;20444;-79
2024/01/24 09:44:08;;;;;;;0.30;0.30;;;11.20;99.90;;;;;;5081023;28;20448;-79
2024/01/24 09:46:36;;;;;;;0.30;0.20;;;11.10;99.90;;;;;;5081717;28;20860;-79
2024/01/24 09:49:05;;;;;;;0.40;0.40;;;11.20;99.90;;;;;;5081546;28;20484;-79
2024/01/24 09:51:34;;;;;;;0.30;0.20;;;11.30;99.90;;;;;;5081116;28;20445;-78
2024/01/24 09:54:05;;;;;;;0.40;0.30;;;11.30;99.90;;;;;;5080490;28;20444;-80
2024/01/24 09:56:34;;;;;;;0.30;0.20;;;11.40;99.90;;;;;;5080539;28;20784;-79
2024/01/24 09:59:01;;;;;;;0.30;0.30;;;11.40;99.90;;;;;;5080572;28;20457;-79
2024/01/24 10:01:32;;;;;;;0.30;0.20;;;11.50;99.90;;;;;;5079815;28;20440;-78
2024/01/24 10:04:00;;;;;;;0.30;0.30;;;11.50;99.90;;;;;;5080386;28;20428;-78
2024/01/24 10:06:27;;;;;;;0.30;0.30;;;11.50;99.90;;;;;;5084877;28;20445;-79
2024/01/24 10:08:56;;;;;;;0.30;0.20;;;11.50;99.90;;;;;;5077587;28;20585;-78
2024/01/24 10:11:26;;;;;;;0.30;0.20;;;11.60;99.90;;;;;;5077689;28;20449;-78
2024/01/24 10:13:57;;;;;;;0.40;0.30;;;11.70;99.90;;;;;;5077538;28;20455;-78
2024/01/24 10:16:25;;;;;;;0.30;0.20;;;11.70;99.90;;;;;;5077478;28;20945;-78
2024/01/24 10:18:55;;;;;;;0.30;0.20;;;11.70;99.90;;;;;;5077075;28;20492;-78
2024/01/24 10:21:22;;;;;;;0.40;0.30;;;11.80;99.90;;;;;;5077240;28;20913;-79
2024/01/24 10:23:49;;;;;;;0.30;0.27;;;11.90;99.90;;;;;;5078591;28;20529;-79
2024/01/24 10:26:18;;;;;;;0.30;0.30;;;12.10;99.90;;;;;;5077596;28;20474;-78
2024/01/24 10:28:45;;;;;;;0.30;0.30;;;12.30;99.90;;;;;;5077691;28;20489;-79
2024/01/24 10:31:12;;;;;;;0.40;0.30;;;12.40;99.90;;;;;;5078638;28;20452;-79
2024/01/24 10:33:40;;;;;;;0.30;0.30;;;12.50;99.90;;;;;;5078587;28;20946;-79
2024/01/24 10:36:10;;;;;;;0.33;0.30;;;12.60;99.90;;;;;;5079347;28;20452;-80
2024/01/24 10:38:39;;;;;;;0.30;0.30;;;12.60;99.90;;;;;;5079737;28;20433;-79
2024/01/24 10:41:10;;;;;;;0.30;0.30;;;12.60;99.90;;;;;;5078599;28;20506;-80
2024/01/24 10:43:45;;;;;;;0.30;0.30;;;12.60;99.90;;;;;;5078167;28;20941;-79
2024/01/24 10:46:13;;;;;;;0.30;0.20;;;12.60;99.90;;;;;;5078510;28;20448;-79
2024/01/24 10:48:42;;;;;;;0.30;0.20;;;12.60;99.90;;;;;;5079443;28;20469;-79
2024/01/24 10:51:10;;;;;;;0.30;0.30;;;12.60;99.90;;;;;;5079720;28;20489;-79
2024/01/24 10:53:38;;;;;;;0.40;0.30;;;12.10;99.90;;;;;;5080285;28;20448;-79
2024/01/24 10:56:07;;;;;;;0.30;0.30;;;12.60;99.90;;;;;;5079725;28;20503;-79
2024/01/24 10:58:36;;;;;;;0.30;0.20;;;11.20;99.90;;;;;;5078901;28;20957;-79
2024/01/24 11:01:04;;;;;;;0.30;0.30;;;12.20;99.90;;;;;;5078430;28;20471;-79
2024/01/24 11:03:32;;;;;;;0.30;0.20;;;12.10;99.90;;;;;;5078035;28;20408;-79
2024/01/24 11:06:05;;;;;;;0.30;0.20;;;13.50;99.90;;;;;;5077747;28;20434;-79
2024/01/24 11:08:38;;;;;;;3.17;0.30;;;11.80;99.90;;;;;;5078656;28;20473;-80
2024/01/24 11:11:11;;;;;;;0.40;0.30;;;11.60;99.90;;;;;;5079410;28;20485;-79
2024/01/24 11:13:39;;;;;;;0.30;0.30;;;11.50;99.90;;;;;;5079106;28;20464;-79
2024/01/24 11:16:29;;;;;;;0.30;0.30;;;10.40;99.90;;;;;;5078367;28;20486;-81
2024/01/24 11:19:00;;;;;;;0.30;0.30;;;11.50;99.90;;;;;;5079228;28;20499;-79
2024/01/24 11:21:29;;;;;;;0.30;0.30;;;11.60;99.90;;;;;;5079600;28;20429;-79
2024/01/24 11:23:56;;;;;;;0.30;0.30;;;11.60;99.90;;;;;;5084970;28;20535;-80
2024/01/24 11:26:48;;;;;;;0.30;0.20;;;11.80;99.90;;;;;;5079443;28;20445;-79
2024/01/24 11:29:15;;;;;;;0.37;0.30;;;12.00;99.90;;;;;;5078447;28;20485;-79
2024/01/24 11:31:44;;;;;;;0.40;0.30;;;12.20;99.90;;;;;;5076717;28;20444;-79
2024/01/24 11:34:12;;;;;;;1.30;0.43;;;12.30;99.90;;;;;;5077543;28;20444;-79
2024/01/24 11:36:45;;;;;;;0.30;0.30;;;12.30;99.90;;;;;;5076470;28;20861;-79
2024/01/24 11:39:35;;;;;;;0.30;0.30;;;12.50;99.90;;;;;;5076549;28;20461;-79
2024/01/24 11:42:36;;;;;;;0.30;0.20;;;12.50;99.90;;;;;;5076882;28;20821;-79
2024/01/24 11:45:15;;;;;;;0.30;0.30;;;12.60;99.90;;;;;;5076763;28;20457;-79
2024/01/24 11:47:43;;;;;;;0.30;0.27;;;12.60;99.90;;;;;;5076474;28;20463;-79
2024/01/24 11:50:11;;;;;;;0.40;0.30;;;12.50;99.90;;;;;;5075458;28;20542;-79
2024/01/24 11:52:38;;;;;;;0.40;0.30;;;12.50;99.90;;;;;;5076394;28;20437;-79
2024/01/24 11:55:06;;;;;;;0.60;0.30;;;12.40;99.90;;;;;;5075875;28;20441;-79
2024/01/24 11:57:32;;;;;;;0.40;0.30;;;12.30;99.90;;;;;;5076113;28;20818;-79
2024/01/24 11:59:59;;;;;;;0.30;0.23;;;12.10;99.90;;;;;;5075861;28;20467;-79
2024/01/24 12:02:28;;;;;;;0.40;0.30;;;11.90;99.90;;;;;;5075706;28;20448;-79
2024/01/24 12:04:57;;;;;;;0.30;0.30;;;11.80;99.90;;;;;;5075407;28;20445;-79
2024/01/24 12:07:24;;;;;;;0.30;0.20;;;11.80;99.90;;;;;;5076246;28;20452;-79
2024/01/24 12:09:52;;;;;;;2.33;0.60;;;11.60;99.90;;;;;;5076027;28;20494;-79
2024/01/24 12:12:20;;;;;;;0.30;0.30;;;11.60;99.90;;;;;;5075752;28;20465;-80
2024/01/24 12:14:47;;;;;;;0.60;0.30;;;11.50;99.90;;;;;;5080230;28;20448;-80
2024/01/24 12:17:14;;;;;;;0.40;0.40;;;11.50;99.90;;;;;;5077584;28;20441;-80
2024/01/24 12:19:43;;;;;;;0.50;0.30;;;11.50;99.90;;;;;;5076080;28;20468;-80
2024/01/24 12:22:12;;;;;;;0.30;0.30;;;11.40;99.90;;;;;;5076611;28;20448;-81
2024/01/24 12:24:39;;;;;;;0.30;0.30;;;11.40;99.90;;;;;;5076359;28;20448;-81
2024/01/24 12:27:07;;;;;;;0.30;0.20;;;11.30;99.90;;;;;;5077172;28;20445;-82
2024/01/24 12:29:35;;;;;;;0.30;0.20;;;11.10;99.90;;;;;;5077264;28;20473;-82
2024/01/24 12:32:02;;;;;;;0.77;0.30;;;11.20;99.90;;;;;;5080200;28;20436;-83
2024/01/24 12:34:30;;;;;;;0.30;0.20;;;11.10;99.90;;;;;;5078962;28;20958;-81
2024/01/24 12:37:00;;;;;;;0.30;0.30;;;11.00;99.90;;;;;;5076807;28;21011;-81
2024/01/24 12:39:28;;;;;;;0.30;0.20;;;11.00;99.90;;;;;;5078055;28;20454;-81
2024/01/24 12:41:55;;;;;;;0.30;0.20;;;11.00;99.90;;;;;;5077193;28;20444;-81
2024/01/24 12:44:22;;;;;;;1.13;0.50;;;11.00;99.90;;;;;;5077421;28;20449;-81
2024/01/24 12:46:58;;;;;;;0.30;0.30;;;11.10;99.90;;;;;;5077144;28;20825;-81
2024/01/24 12:49:25;;;;;;;3.07;1.20;;;11.20;99.90;;;;;;5077618;28;20445;-81
2024/01/24 12:51:53;;;;;;;0.30;0.20;;;11.30;99.90;;;;;;5076655;28;20436;-81
2024/01/24 12:54:20;;;;;;;0.60;0.30;;;11.20;99.90;;;;;;5076257;28;20445;-81
2024/01/24 12:56:48;;;;;;;0.30;0.30;;;11.30;99.90;;;;;;5076673;28;20437;-80